<?xml version='1.0' encoding='UTF-8'?><gpx version="1.1" creator="JPX - https://github.com/jenetics/jpx" xmlns="http://www.topografix.com/GPX/1/1"><trk><trkseg><trkpt lat="44.0311117" lon="10.8884767"><ele>831.0</ele><time>2026-04-18T12:13:29.192Z</time></trkpt><trkpt lat="44.0310217" lon="10.8885083"><ele>831.0</ele><time>2026-04-18T12:13:31.192Z</time></trkpt><trkpt lat="44.0309333" lon="10.8885367"><ele>831.0</ele><time>2026-04-18T12:13:33.192Z</time></trkpt><trkpt lat="44.03073" lon="10.8884733"><ele>831.0</ele><time>2026-04-18T12:14:50.195Z</time></trkpt><trkpt lat="44.03065" lon="10.8883283"><ele>825.8</ele><time>2026-04-18T12:16:18.192Z</time></trkpt><trkpt lat="44.030575" lon="10.8882517"><ele>820.5999999999999</ele><time>2026-04-18T12:16:20.192Z</time></trkpt><trkpt lat="44.0305083" lon="10.8881917"><ele>815.4</ele><time>2026-04-18T12:16:22.192Z</time></trkpt><trkpt lat="44.0304267" lon="10.888105"><ele>810.2</ele><time>2026-04-18T12:16:24.192Z</time></trkpt><trkpt lat="44.0303483" lon="10.888015"><ele>805.0</ele><time>2026-04-18T12:16:26.192Z</time></trkpt><trkpt lat="44.0302717" lon="10.887905"><ele>805.0</ele><time>2026-04-18T12:16:28.192Z</time></trkpt><trkpt lat="44.0301983" lon="10.8877983"><ele>805.0</ele><time>2026-04-18T12:16:30.192Z</time></trkpt><trkpt lat="44.030135" lon="10.8876917"><ele>805.0</ele><time>2026-04-18T12:16:32.192Z</time></trkpt><trkpt lat="44.0300933" lon="10.88757"><ele>805.0</ele><time>2026-04-18T12:16:34.192Z</time></trkpt><trkpt lat="44.0300467" lon="10.8874317"><ele>805.0</ele><time>2026-04-18T12:16:36.192Z</time></trkpt><trkpt lat="44.0300233" lon="10.887345"><ele>806.8</ele><time>2026-04-18T12:16:37.192Z</time></trkpt><trkpt lat="44.0300117" lon="10.8872467"><ele>808.6</ele><time>2026-04-18T12:16:38.192Z</time></trkpt><trkpt lat="44.0300067" lon="10.8871567"><ele>810.4000000000001</ele><time>2026-04-18T12:16:39.192Z</time></trkpt><trkpt lat="44.02998" lon="10.8870033"><ele>812.2</ele><time>2026-04-18T12:16:41.192Z</time></trkpt><trkpt lat="44.0299483" lon="10.8868717"><ele>814.0</ele><time>2026-04-18T12:16:43.192Z</time></trkpt><trkpt lat="44.0299133" lon="10.8867367"><ele>809.6</ele><time>2026-04-18T12:16:45.192Z</time></trkpt><trkpt lat="44.02986" lon="10.88659"><ele>805.2</ele><time>2026-04-18T12:16:47.192Z</time></trkpt><trkpt lat="44.0297983" lon="10.88648"><ele>800.8000000000001</ele><time>2026-04-18T12:16:48.192Z</time></trkpt><trkpt lat="44.02973" lon="10.8863683"><ele>796.4000000000001</ele><time>2026-04-18T12:16:49.192Z</time></trkpt><trkpt lat="44.029675" lon="10.8862717"><ele>792.0</ele><time>2026-04-18T12:16:50.192Z</time></trkpt><trkpt lat="44.0296133" lon="10.8861767"><ele>792.0</ele><time>2026-04-18T12:16:51.192Z</time></trkpt><trkpt lat="44.0295667" lon="10.8860983"><ele>792.0</ele><time>2026-04-18T12:16:52.192Z</time></trkpt><trkpt lat="44.02953" lon="10.886025"><ele>792.0</ele><time>2026-04-18T12:16:53.192Z</time></trkpt><trkpt lat="44.0294983" lon="10.8859467"><ele>792.0</ele><time>2026-04-18T12:16:54.193Z</time></trkpt><trkpt lat="44.02948" lon="10.8858567"><ele>792.0</ele><time>2026-04-18T12:16:55.192Z</time></trkpt><trkpt lat="44.0294683" lon="10.8857633"><ele>792.0</ele><time>2026-04-18T12:16:56.192Z</time></trkpt><trkpt lat="44.0294567" lon="10.8856683"><ele>792.0</ele><time>2026-04-18T12:16:57.192Z</time></trkpt><trkpt lat="44.0294333" lon="10.88557"><ele>794.4000000000001</ele><time>2026-04-18T12:16:58.192Z</time></trkpt><trkpt lat="44.0294133" lon="10.88548"><ele>796.8000000000001</ele><time>2026-04-18T12:16:59.192Z</time></trkpt><trkpt lat="44.0293817" lon="10.8853933"><ele>799.2</ele><time>2026-04-18T12:17:00.192Z</time></trkpt><trkpt lat="44.0293067" lon="10.885255"><ele>801.6</ele><time>2026-04-18T12:17:02.192Z</time></trkpt><trkpt lat="44.029215" lon="10.8851167"><ele>804.0</ele><time>2026-04-18T12:17:04.192Z</time></trkpt><trkpt lat="44.02917" lon="10.8850167"><ele>798.6666666666666</ele><time>2026-04-18T12:17:05.192Z</time></trkpt><trkpt lat="44.02912" lon="10.8849267"><ele>793.3333333333333</ele><time>2026-04-18T12:17:06.192Z</time></trkpt><trkpt lat="44.02907" lon="10.8848217"><ele>788.0</ele><time>2026-04-18T12:17:07.192Z</time></trkpt><trkpt lat="44.0290233" lon="10.8847267"><ele>782.6666666666666</ele><time>2026-04-18T12:17:08.192Z</time></trkpt><trkpt lat="44.0289817" lon="10.884625"><ele>777.3333333333333</ele><time>2026-04-18T12:17:09.192Z</time></trkpt><trkpt lat="44.0289617" lon="10.884515"><ele>772.0</ele><time>2026-04-18T12:17:10.192Z</time></trkpt><trkpt lat="44.02895" lon="10.8844133"><ele>772.0000000000001</ele><time>2026-04-18T12:17:11.192Z</time></trkpt><trkpt lat="44.028945" lon="10.8843133"><ele>772.0</ele><time>2026-04-18T12:17:12.192Z</time></trkpt><trkpt lat="44.02894" lon="10.884215"><ele>772.0</ele><time>2026-04-18T12:17:13.192Z</time></trkpt><trkpt lat="44.0289117" lon="10.8841317"><ele>772.0</ele><time>2026-04-18T12:17:14.192Z</time></trkpt><trkpt lat="44.0288783" lon="10.8840483"><ele>772.0</ele><time>2026-04-18T12:17:15.192Z</time></trkpt><trkpt lat="44.0288367" lon="10.883965"><ele>772.0000000000001</ele><time>2026-04-18T12:17:16.192Z</time></trkpt><trkpt lat="44.0288" lon="10.883875"><ele>772.0</ele><time>2026-04-18T12:17:17.192Z</time></trkpt><trkpt lat="44.0287717" lon="10.8837883"><ele>771.9999999999999</ele><time>2026-04-18T12:17:18.192Z</time></trkpt><trkpt lat="44.02875" lon="10.8836967"><ele>772.0</ele><time>2026-04-18T12:17:19.192Z</time></trkpt><trkpt lat="44.0287333" lon="10.883605"><ele>772.0</ele><time>2026-04-18T12:17:20.192Z</time></trkpt><trkpt lat="44.0287183" lon="10.883515"><ele>772.0</ele><time>2026-04-18T12:17:21.192Z</time></trkpt><trkpt lat="44.028705" lon="10.8834283"><ele>771.9999999999999</ele><time>2026-04-18T12:17:22.192Z</time></trkpt><trkpt lat="44.0286817" lon="10.883305"><ele>772.0</ele><time>2026-04-18T12:17:24.192Z</time></trkpt><trkpt lat="44.0286083" lon="10.8831933"><ele>772.0</ele><time>2026-04-18T12:17:26.192Z</time></trkpt><trkpt lat="44.0285283" lon="10.8830917"><ele>772.0</ele><time>2026-04-18T12:17:28.192Z</time></trkpt><trkpt lat="44.0284633" lon="10.8829567"><ele>772.0</ele><time>2026-04-18T12:17:30.192Z</time></trkpt><trkpt lat="44.0284483" lon="10.88287"><ele>772.0</ele><time>2026-04-18T12:17:31.192Z</time></trkpt><trkpt lat="44.02843" lon="10.8827117"><ele>772.0</ele><time>2026-04-18T12:17:33.192Z</time></trkpt><trkpt lat="44.0284267" lon="10.8826183"><ele>771.3333333333333</ele><time>2026-04-18T12:17:34.192Z</time></trkpt><trkpt lat="44.0284467" lon="10.88251"><ele>770.6666666666666</ele><time>2026-04-18T12:17:35.192Z</time></trkpt><trkpt lat="44.02846" lon="10.8824033"><ele>770.0</ele><time>2026-04-18T12:17:36.192Z</time></trkpt><trkpt lat="44.0284633" lon="10.8823017"><ele>769.3333333333333</ele><time>2026-04-18T12:17:37.192Z</time></trkpt><trkpt lat="44.0284583" lon="10.8822067"><ele>768.6666666666666</ele><time>2026-04-18T12:17:38.192Z</time></trkpt><trkpt lat="44.0284417" lon="10.882115"><ele>768.0</ele><time>2026-04-18T12:17:39.192Z</time></trkpt><trkpt lat="44.028395" lon="10.8819633"><ele>768.0</ele><time>2026-04-18T12:17:41.192Z</time></trkpt><trkpt lat="44.0283633" lon="10.8818117"><ele>768.0</ele><time>2026-04-18T12:17:43.192Z</time></trkpt><trkpt lat="44.0283717" lon="10.8816533"><ele>768.0</ele><time>2026-04-18T12:17:45.192Z</time></trkpt><trkpt lat="44.02839" lon="10.8814917"><ele>768.0</ele><time>2026-04-18T12:17:47.192Z</time></trkpt><trkpt lat="44.028415" lon="10.8814083"><ele>768.0</ele><time>2026-04-18T12:17:48.192Z</time></trkpt><trkpt lat="44.0284333" lon="10.8813167"><ele>767.1428571428571</ele><time>2026-04-18T12:17:49.192Z</time></trkpt><trkpt lat="44.02847" lon="10.8812267"><ele>766.2857142857142</ele><time>2026-04-18T12:17:50.192Z</time></trkpt><trkpt lat="44.0284967" lon="10.8811433"><ele>765.4285714285713</ele><time>2026-04-18T12:17:51.192Z</time></trkpt><trkpt lat="44.0285117" lon="10.8810567"><ele>764.5714285714286</ele><time>2026-04-18T12:17:52.192Z</time></trkpt><trkpt lat="44.0285217" lon="10.8809667"><ele>763.7142857142858</ele><time>2026-04-18T12:17:53.192Z</time></trkpt><trkpt lat="44.028535" lon="10.88086"><ele>762.8571428571428</ele><time>2026-04-18T12:17:54.192Z</time></trkpt><trkpt lat="44.0285317" lon="10.8807583"><ele>762.0</ele><time>2026-04-18T12:17:55.192Z</time></trkpt><trkpt lat="44.02852" lon="10.8806717"><ele>761.2</ele><time>2026-04-18T12:17:56.192Z</time></trkpt><trkpt lat="44.0285117" lon="10.8805017"><ele>760.4000000000001</ele><time>2026-04-18T12:17:58.192Z</time></trkpt><trkpt lat="44.02853" lon="10.88035"><ele>759.5999999999999</ele><time>2026-04-18T12:18:00.192Z</time></trkpt><trkpt lat="44.0285367" lon="10.88026"><ele>758.8</ele><time>2026-04-18T12:18:01.192Z</time></trkpt><trkpt lat="44.0285433" lon="10.880085"><ele>758.0</ele><time>2026-04-18T12:18:03.192Z</time></trkpt><trkpt lat="44.02852" lon="10.8799233"><ele>758.0</ele><time>2026-04-18T12:18:05.192Z</time></trkpt><trkpt lat="44.028505" lon="10.8798267"><ele>758.0</ele><time>2026-04-18T12:18:06.192Z</time></trkpt><trkpt lat="44.0284883" lon="10.8797283"><ele>758.0</ele><time>2026-04-18T12:18:07.192Z</time></trkpt><trkpt lat="44.0284767" lon="10.87962"><ele>758.0</ele><time>2026-04-18T12:18:08.192Z</time></trkpt><trkpt lat="44.028475" lon="10.87952"><ele>758.0</ele><time>2026-04-18T12:18:09.192Z</time></trkpt><trkpt lat="44.0284717" lon="10.8794117"><ele>758.0</ele><time>2026-04-18T12:18:10.192Z</time></trkpt><trkpt lat="44.02845" lon="10.8793067"><ele>758.0</ele><time>2026-04-18T12:18:11.192Z</time></trkpt><trkpt lat="44.0284283" lon="10.8792067"><ele>756.0</ele><time>2026-04-18T12:18:12.192Z</time></trkpt><trkpt lat="44.028405" lon="10.8791217"><ele>756.0</ele><time>2026-04-18T12:18:13.192Z</time></trkpt><trkpt lat="44.0283617" lon="10.8790083"><ele>756.0</ele><time>2026-04-18T12:18:15.192Z</time></trkpt></trkseg></trk></gpx>